sensor_id;sensor_type;location;lat;lon;timestamp;P1;durP1;ratioP1;P2;durP2;ratioP2
18983;SDS011;9626;52.552;13.436;2023-08-17T00:02:11;5.68;;;2.30;;
18983;SDS011;9626;52.552;13.436;2023-08-17T00:04:45;2.55;;;1.90;;
18983;SDS011;9626;52.552;13.436;2023-08-17T00:07:11;3.90;;;2.10;;
18983;SDS011;9626;52.552;13.436;2023-08-17T00:09:38;5.60;;;2.30;;
18983;SDS011;9626;52.552;13.436;2023-08-17T00:12:04;8.80;;;2.28;;
18983;SDS011;9626;52.552;13.436;2023-08-17T00:14:31;3.65;;;2.28;;
18983;SDS011;9626;52.552;13.436;2023-08-17T00:16:57;3.67;;;2.03;;
18983;SDS011;9626;52.552;13.436;2023-08-17T00:19:23;5.07;;;2.35;;
18983;SDS011;9626;52.552;13.436;2023-08-17T00:21:49;5.55;;;2.55;;
18983;SDS011;9626;52.552;13.436;2023-08-17T00:24:17;3.67;;;2.30;;
18983;SDS011;9626;52.552;13.436;2023-08-17T00:26:43;6.38;;;2.70;;
18983;SDS011;9626;52.552;13.436;2023-08-17T00:29:09;6.47;;;2.65;;
18983;SDS011;9626;52.552;13.436;2023-08-17T00:31:35;7.40;;;2.60;;
18983;SDS011;9626;52.552;13.436;2023-08-17T00:34:01;8.77;;;2.58;;
18983;SDS011;9626;52.552;13.436;2023-08-17T00:36:27;6.60;;;2.67;;
18983;SDS011;9626;52.552;13.436;2023-08-17T00:38:53;4.38;;;2.40;;
18983;SDS011;9626;52.552;13.436;2023-08-17T00:41:19;3.15;;;2.10;;
18983;SDS011;9626;52.552;13.436;2023-08-17T00:43:45;5.20;;;2.00;;
18983;SDS011;9626;52.552;13.436;2023-08-17T00:46:11;2.25;;;2.00;;
18983;SDS011;9626;52.552;13.436;2023-08-17T00:48:37;5.55;;;2.00;;
18983;SDS011;9626;52.552;13.436;2023-08-17T00:51:03;3.85;;;2.15;;
18983;SDS011;9626;52.552;13.436;2023-08-17T00:53:31;4.43;;;2.05;;
18983;SDS011;9626;52.552;13.436;2023-08-17T00:55:57;7.90;;;2.47;;
18983;SDS011;9626;52.552;13.436;2023-08-17T00:58:25;6.82;;;2.80;;
18983;SDS011;9626;52.552;13.436;2023-08-17T01:00:51;6.00;;;2.47;;
18983;SDS011;9626;52.552;13.436;2023-08-17T01:03:17;4.70;;;3.08;;
18983;SDS011;9626;52.552;13.436;2023-08-17T01:05:46;8.40;;;2.47;;
18983;SDS011;9626;52.552;13.436;2023-08-17T01:08:12;4.63;;;2.47;;
18983;SDS011;9626;52.552;13.436;2023-08-17T01:10:52;5.18;;;2.40;;
18983;SDS011;9626;52.552;13.436;2023-08-17T01:13:35;6.07;;;2.67;;
18983;SDS011;9626;52.552;13.436;2023-08-17T01:16:16;9.57;;;2.50;;
18983;SDS011;9626;52.552;13.436;2023-08-17T01:18:50;4.43;;;2.38;;
18983;SDS011;9626;52.552;13.436;2023-08-17T01:21:18;3.15;;;1.98;;
18983;SDS011;9626;52.552;13.436;2023-08-17T01:23:49;7.18;;;2.10;;
18983;SDS011;9626;52.552;13.436;2023-08-17T01:26:16;3.65;;;2.20;;
18983;SDS011;9626;52.552;13.436;2023-08-17T01:28:43;7.38;;;2.40;;
18983;SDS011;9626;52.552;13.436;2023-08-17T01:31:11;4.47;;;2.30;;
18983;SDS011;9626;52.552;13.436;2023-08-17T01:33:52;6.10;;;2.85;;
18983;SDS011;9626;52.552;13.436;2023-08-17T01:36:24;6.55;;;2.17;;
18983;SDS011;9626;52.552;13.436;2023-08-17T01:38:52;4.45;;;2.05;;
18983;SDS011;9626;52.552;13.436;2023-08-17T01:41:21;5.00;;;2.47;;
18983;SDS011;9626;52.552;13.436;2023-08-17T01:43:48;7.03;;;2.10;;
18983;SDS011;9626;52.552;13.436;2023-08-17T01:46:16;6.68;;;2.25;;
18983;SDS011;9626;52.552;13.436;2023-08-17T01:48:43;5.30;;;2.30;;
18983;SDS011;9626;52.552;13.436;2023-08-17T01:51:10;3.58;;;2.30;;
18983;SDS011;9626;52.552;13.436;2023-08-17T01:53:37;8.30;;;2.30;;
18983;SDS011;9626;52.552;13.436;2023-08-17T01:56:03;5.30;;;2.20;;
18983;SDS011;9626;52.552;13.436;2023-08-17T01:58:29;3.25;;;2.15;;
18983;SDS011;9626;52.552;13.436;2023-08-17T02:00:55;4.65;;;2.47;;
18983;SDS011;9626;52.552;13.436;2023-08-17T02:03:21;4.43;;;2.30;;
18983;SDS011;9626;52.552;13.436;2023-08-17T02:05:47;7.97;;;2.75;;
18983;SDS011;9626;52.552;13.436;2023-08-17T02:08:13;6.82;;;2.53;;
18983;SDS011;9626;52.552;13.436;2023-08-17T02:10:39;3.90;;;2.95;;
18983;SDS011;9626;52.552;13.436;2023-08-17T02:13:05;6.90;;;2.67;;
18983;SDS011;9626;52.552;13.436;2023-08-17T02:15:31;7.05;;;2.75;;
18983;SDS011;9626;52.552;13.436;2023-08-17T02:18:00;6.38;;;3.10;;
18983;SDS011;9626;52.552;13.436;2023-08-17T02:20:26;6.28;;;3.13;;
18983;SDS011;9626;52.552;13.436;2023-08-17T02:22:52;5.57;;;2.80;;
18983;SDS011;9626;52.552;13.436;2023-08-17T02:25:18;3.58;;;2.78;;
18983;SDS011;9626;52.552;13.436;2023-08-17T02:27:44;6.00;;;2.92;;
18983;SDS011;9626;52.552;13.436;2023-08-17T02:30:11;7.05;;;3.47;;
18983;SDS011;9626;52.552;13.436;2023-08-17T02:32:37;7.32;;;3.47;;
18983;SDS011;9626;52.552;13.436;2023-08-17T02:35:04;6.35;;;3.50;;
18983;SDS011;9626;52.552;13.436;2023-08-17T02:37:30;5.82;;;3.20;;
18983;SDS011;9626;52.552;13.436;2023-08-17T02:39:56;6.70;;;3.33;;
18983;SDS011;9626;52.552;13.436;2023-08-17T02:42:23;9.45;;;3.15;;
18983;SDS011;9626;52.552;13.436;2023-08-17T02:44:49;6.70;;;3.35;;
18983;SDS011;9626;52.552;13.436;2023-08-17T02:47:15;9.50;;;3.67;;
18983;SDS011;9626;52.552;13.436;2023-08-17T02:49:41;8.95;;;3.15;;
18983;SDS011;9626;52.552;13.436;2023-08-17T02:52:07;6.32;;;3.03;;
18983;SDS011;9626;52.552;13.436;2023-08-17T02:54:33;6.35;;;3.35;;
18983;SDS011;9626;52.552;13.436;2023-08-17T02:56:59;4.07;;;2.30;;
18983;SDS011;9626;52.552;13.436;2023-08-17T02:59:27;4.10;;;2.30;;
18983;SDS011;9626;52.552;13.436;2023-08-17T03:01:53;5.65;;;2.70;;
18983;SDS011;9626;52.552;13.436;2023-08-17T03:04:20;5.18;;;2.10;;
18983;SDS011;9626;52.552;13.436;2023-08-17T03:06:46;4.13;;;1.98;;
18983;SDS011;9626;52.552;13.436;2023-08-17T03:09:12;4.18;;;2.20;;
18983;SDS011;9626;52.552;13.436;2023-08-17T03:11:38;4.25;;;2.10;;
18983;SDS011;9626;52.552;13.436;2023-08-17T03:14:04;5.20;;;2.15;;
18983;SDS011;9626;52.552;13.436;2023-08-17T03:16:30;3.28;;;2.05;;
18983;SDS011;9626;52.552;13.436;2023-08-17T03:18:56;5.57;;;1.90;;
18983;SDS011;9626;52.552;13.436;2023-08-17T03:21:31;4.53;;;2.08;;
18983;SDS011;9626;52.552;13.436;2023-08-17T03:23:57;2.95;;;1.83;;
18983;SDS011;9626;52.552;13.436;2023-08-17T03:26:23;4.25;;;2.10;;
18983;SDS011;9626;52.552;13.436;2023-08-17T03:28:50;5.95;;;2.22;;
18983;SDS011;9626;52.552;13.436;2023-08-17T03:31:16;5.05;;;2.22;;
18983;SDS011;9626;52.552;13.436;2023-08-17T03:33:42;4.40;;;2.33;;
18983;SDS011;9626;52.552;13.436;2023-08-17T03:36:08;6.32;;;2.38;;
18983;SDS011;9626;52.552;13.436;2023-08-17T03:38:34;5.20;;;2.50;;
18983;SDS011;9626;52.552;13.436;2023-08-17T03:41:00;5.70;;;2.22;;
18983;SDS011;9626;52.552;13.436;2023-08-17T03:43:27;5.28;;;2.70;;
18983;SDS011;9626;52.552;13.436;2023-08-17T03:45:53;4.07;;;2.58;;
18983;SDS011;9626;52.552;13.436;2023-08-17T03:48:20;3.60;;;2.28;;
18983;SDS011;9626;52.552;13.436;2023-08-17T03:50:54;5.65;;;2.45;;
18983;SDS011;9626;52.552;13.436;2023-08-17T03:53:26;4.90;;;2.42;;
18983;SDS011;9626;52.552;13.436;2023-08-17T03:55:52;5.65;;;1.85;;
18983;SDS011;9626;52.552;13.436;2023-08-17T03:58:18;3.22;;;2.05;;
18983;SDS011;9626;52.552;13.436;2023-08-17T04:00:51;4.45;;;2.03;;
18983;SDS011;9626;52.552;13.436;2023-08-17T04:03:17;4.03;;;2.20;;
18983;SDS011;9626;52.552;13.436;2023-08-17T04:05:44;3.75;;;2.00;;
18983;SDS011;9626;52.552;13.436;2023-08-17T04:08:10;3.13;;;2.33;;
18983;SDS011;9626;52.552;13.436;2023-08-17T04:10:36;3.53;;;2.00;;
18983;SDS011;9626;52.552;13.436;2023-08-17T04:13:07;4.45;;;1.95;;
18983;SDS011;9626;52.552;13.436;2023-08-17T04:15:33;3.83;;;2.13;;
18983;SDS011;9626;52.552;13.436;2023-08-17T04:17:59;3.75;;;2.08;;
18983;SDS011;9626;52.552;13.436;2023-08-17T04:20:25;4.32;;;2.17;;
18983;SDS011;9626;52.552;13.436;2023-08-17T04:22:57;3.85;;;2.35;;
18983;SDS011;9626;52.552;13.436;2023-08-17T04:25:23;3.85;;;2.20;;
18983;SDS011;9626;52.552;13.436;2023-08-17T04:27:49;4.07;;;2.20;;
18983;SDS011;9626;52.552;13.436;2023-08-17T04:30:15;4.95;;;2.08;;
18983;SDS011;9626;52.552;13.436;2023-08-17T04:32:41;3.03;;;1.65;;
18983;SDS011;9626;52.552;13.436;2023-08-17T04:35:07;5.63;;;2.30;;
18983;SDS011;9626;52.552;13.436;2023-08-17T04:37:35;4.68;;;1.33;;
18983;SDS011;9626;52.552;13.436;2023-08-17T04:40:01;4.82;;;1.95;;
18983;SDS011;9626;52.552;13.436;2023-08-17T04:42:27;3.38;;;1.90;;
18983;SDS011;9626;52.552;13.436;2023-08-17T04:44:53;7.70;;;1.90;;
18983;SDS011;9626;52.552;13.436;2023-08-17T04:47:19;3.97;;;1.90;;
18983;SDS011;9626;52.552;13.436;2023-08-17T04:49:46;4.75;;;2.03;;
18983;SDS011;9626;52.552;13.436;2023-08-17T04:52:12;2.80;;;2.03;;
18983;SDS011;9626;52.552;13.436;2023-08-17T04:54:38;4.35;;;1.98;;
18983;SDS011;9626;52.552;13.436;2023-08-17T04:57:04;5.28;;;1.73;;
18983;SDS011;9626;52.552;13.436;2023-08-17T04:59:31;4.43;;;1.83;;
18983;SDS011;9626;52.552;13.436;2023-08-17T05:01:57;3.95;;;1.67;;
18983;SDS011;9626;52.552;13.436;2023-08-17T05:04:23;4.35;;;1.83;;
18983;SDS011;9626;52.552;13.436;2023-08-17T05:06:49;2.38;;;1.80;;
18983;SDS011;9626;52.552;13.436;2023-08-17T05:09:15;4.72;;;2.58;;
18983;SDS011;9626;52.552;13.436;2023-08-17T05:11:41;5.60;;;3.33;;
18983;SDS011;9626;52.552;13.436;2023-08-17T05:14:10;3.92;;;1.60;;
18983;SDS011;9626;52.552;13.436;2023-08-17T05:16:36;2.85;;;1.70;;
18983;SDS011;9626;52.552;13.436;2023-08-17T05:19:02;4.47;;;2.00;;
18983;SDS011;9626;52.552;13.436;2023-08-17T05:21:28;4.38;;;1.80;;
18983;SDS011;9626;52.552;13.436;2023-08-17T05:23:55;4.35;;;1.58;;
18983;SDS011;9626;52.552;13.436;2023-08-17T05:26:22;2.17;;;1.55;;
18983;SDS011;9626;52.552;13.436;2023-08-17T05:28:48;6.15;;;1.92;;
18983;SDS011;9626;52.552;13.436;2023-08-17T05:31:14;4.57;;;1.75;;
18983;SDS011;9626;52.552;13.436;2023-08-17T05:33:40;4.20;;;1.80;;
18983;SDS011;9626;52.552;13.436;2023-08-17T05:36:07;7.03;;;2.25;;
18983;SDS011;9626;52.552;13.436;2023-08-17T05:38:33;4.53;;;1.88;;
18983;SDS011;9626;52.552;13.436;2023-08-17T05:40:59;3.53;;;1.73;;
18983;SDS011;9626;52.552;13.436;2023-08-17T05:43:25;7.90;;;1.90;;
18983;SDS011;9626;52.552;13.436;2023-08-17T05:45:51;6.10;;;1.92;;
18983;SDS011;9626;52.552;13.436;2023-08-17T05:48:27;4.65;;;1.80;;
18983;SDS011;9626;52.552;13.436;2023-08-17T05:50:55;19.98;;;2.50;;
18983;SDS011;9626;52.552;13.436;2023-08-17T05:53:21;13.13;;;1.95;;
18983;SDS011;9626;52.552;13.436;2023-08-17T05:55:47;4.50;;;2.28;;
18983;SDS011;9626;52.552;13.436;2023-08-17T05:58:13;3.58;;;1.85;;
18983;SDS011;9626;52.552;13.436;2023-08-17T06:00:39;6.72;;;1.98;;
18983;SDS011;9626;52.552;13.436;2023-08-17T06:03:05;10.40;;;1.70;;
18983;SDS011;9626;52.552;13.436;2023-08-17T06:05:31;3.55;;;1.92;;
18983;SDS011;9626;52.552;13.436;2023-08-17T06:07:58;3.42;;;1.80;;
18983;SDS011;9626;52.552;13.436;2023-08-17T06:10:24;2.35;;;1.60;;
18983;SDS011;9626;52.552;13.436;2023-08-17T06:12:52;2.60;;;1.63;;
18983;SDS011;9626;52.552;13.436;2023-08-17T06:15:19;3.20;;;1.73;;
18983;SDS011;9626;52.552;13.436;2023-08-17T06:17:45;3.58;;;1.80;;
18983;SDS011;9626;52.552;13.436;2023-08-17T06:20:11;7.13;;;2.08;;
18983;SDS011;9626;52.552;13.436;2023-08-17T06:22:44;7.28;;;2.45;;
18983;SDS011;9626;52.552;13.436;2023-08-17T06:25:10;4.00;;;1.80;;
18983;SDS011;9626;52.552;13.436;2023-08-17T06:27:36;3.88;;;2.00;;
18983;SDS011;9626;52.552;13.436;2023-08-17T06:30:03;5.13;;;2.00;;
18983;SDS011;9626;52.552;13.436;2023-08-17T06:32:30;6.05;;;2.50;;
18983;SDS011;9626;52.552;13.436;2023-08-17T06:34:56;4.28;;;1.80;;
18983;SDS011;9626;52.552;13.436;2023-08-17T06:37:22;8.95;;;2.03;;
18983;SDS011;9626;52.552;13.436;2023-08-17T06:39:49;7.25;;;2.10;;
18983;SDS011;9626;52.552;13.436;2023-08-17T06:42:15;4.82;;;2.22;;
18983;SDS011;9626;52.552;13.436;2023-08-17T06:44:41;3.58;;;1.48;;
18983;SDS011;9626;52.552;13.436;2023-08-17T06:47:07;4.53;;;2.70;;
18983;SDS011;9626;52.552;13.436;2023-08-17T06:49:34;4.65;;;2.17;;
18983;SDS011;9626;52.552;13.436;2023-08-17T06:52:01;5.03;;;2.65;;
18983;SDS011;9626;52.552;13.436;2023-08-17T06:54:27;3.58;;;2.55;;
18983;SDS011;9626;52.552;13.436;2023-08-17T06:56:53;4.68;;;1.98;;
18983;SDS011;9626;52.552;13.436;2023-08-17T06:59:20;3.15;;;2.00;;
18983;SDS011;9626;52.552;13.436;2023-08-17T07:01:47;4.80;;;2.17;;
18983;SDS011;9626;52.552;13.436;2023-08-17T07:04:15;4.18;;;2.00;;
18983;SDS011;9626;52.552;13.436;2023-08-17T07:06:42;26.20;;;6.80;;
18983;SDS011;9626;52.552;13.436;2023-08-17T07:09:09;10.07;;;2.97;;
18983;SDS011;9626;52.552;13.436;2023-08-17T07:11:38;9.48;;;2.40;;
18983;SDS011;9626;52.552;13.436;2023-08-17T07:14:04;3.53;;;2.10;;
18983;SDS011;9626;52.552;13.436;2023-08-17T07:16:32;3.67;;;2.08;;
18983;SDS011;9626;52.552;13.436;2023-08-17T07:18:58;8.02;;;3.17;;
18983;SDS011;9626;52.552;13.436;2023-08-17T07:21:24;6.03;;;2.38;;
18983;SDS011;9626;52.552;13.436;2023-08-17T07:23:53;12.65;;;2.38;;
18983;SDS011;9626;52.552;13.436;2023-08-17T07:26:20;3.33;;;1.75;;
18983;SDS011;9626;52.552;13.436;2023-08-17T07:28:46;5.90;;;2.20;;
18983;SDS011;9626;52.552;13.436;2023-08-17T07:31:13;3.20;;;2.30;;
18983;SDS011;9626;52.552;13.436;2023-08-17T07:33:39;4.63;;;2.15;;
18983;SDS011;9626;52.552;13.436;2023-08-17T07:36:05;4.45;;;2.15;;
18983;SDS011;9626;52.552;13.436;2023-08-17T07:38:31;3.38;;;2.00;;
18983;SDS011;9626;52.552;13.436;2023-08-17T07:40:58;4.75;;;2.15;;
18983;SDS011;9626;52.552;13.436;2023-08-17T07:43:24;6.43;;;2.42;;
18983;SDS011;9626;52.552;13.436;2023-08-17T07:45:56;8.02;;;3.20;;
18983;SDS011;9626;52.552;13.436;2023-08-17T07:48:22;4.65;;;2.13;;
18983;SDS011;9626;52.552;13.436;2023-08-17T07:50:49;3.72;;;1.90;;
18983;SDS011;9626;52.552;13.436;2023-08-17T07:53:16;2.92;;;1.98;;
18983;SDS011;9626;52.552;13.436;2023-08-17T07:55:43;6.13;;;2.17;;
18983;SDS011;9626;52.552;13.436;2023-08-17T07:58:09;5.60;;;2.30;;
18983;SDS011;9626;52.552;13.436;2023-08-17T08:00:35;2.47;;;1.70;;
18983;SDS011;9626;52.552;13.436;2023-08-17T08:03:01;4.90;;;1.95;;
18983;SDS011;9626;52.552;13.436;2023-08-17T08:05:27;3.60;;;2.00;;
18983;SDS011;9626;52.552;13.436;2023-08-17T08:07:53;5.18;;;1.95;;
18983;SDS011;9626;52.552;13.436;2023-08-17T08:10:19;5.95;;;2.17;;
18983;SDS011;9626;52.552;13.436;2023-08-17T08:12:46;6.75;;;2.60;;
18983;SDS011;9626;52.552;13.436;2023-08-17T08:15:12;3.42;;;2.22;;
18983;SDS011;9626;52.552;13.436;2023-08-17T08:17:38;6.97;;;2.63;;
18983;SDS011;9626;52.552;13.436;2023-08-17T08:20:04;6.05;;;3.20;;
18983;SDS011;9626;52.552;13.436;2023-08-17T08:22:30;5.40;;;2.63;;
18983;SDS011;9626;52.552;13.436;2023-08-17T08:24:57;4.25;;;2.30;;
18983;SDS011;9626;52.552;13.436;2023-08-17T08:27:23;7.43;;;2.08;;
18983;SDS011;9626;52.552;13.436;2023-08-17T08:29:50;4.45;;;2.15;;
18983;SDS011;9626;52.552;13.436;2023-08-17T08:32:16;2.20;;;1.70;;
18983;SDS011;9626;52.552;13.436;2023-08-17T08:34:42;7.00;;;2.50;;
18983;SDS011;9626;52.552;13.436;2023-08-17T08:37:08;7.22;;;2.22;;
18983;SDS011;9626;52.552;13.436;2023-08-17T08:39:47;4.07;;;2.40;;
18983;SDS011;9626;52.552;13.436;2023-08-17T08:42:17;4.50;;;2.40;;
18983;SDS011;9626;52.552;13.436;2023-08-17T08:44:44;2.65;;;1.70;;
18983;SDS011;9626;52.552;13.436;2023-08-17T08:47:11;6.85;;;2.33;;
18983;SDS011;9626;52.552;13.436;2023-08-17T08:49:44;3.65;;;1.92;;
18983;SDS011;9626;52.552;13.436;2023-08-17T08:52:30;2.85;;;2.30;;
18983;SDS011;9626;52.552;13.436;2023-08-17T08:54:59;4.55;;;2.63;;
18983;SDS011;9626;52.552;13.436;2023-08-17T08:57:37;4.90;;;2.33;;
18983;SDS011;9626;52.552;13.436;2023-08-17T09:00:05;8.45;;;2.00;;
18983;SDS011;9626;52.552;13.436;2023-08-17T09:02:33;6.38;;;2.78;;
18983;SDS011;9626;52.552;13.436;2023-08-17T09:04:59;39.35;;;8.52;;
18983;SDS011;9626;52.552;13.436;2023-08-17T09:07:28;8.50;;;2.40;;
18983;SDS011;9626;52.552;13.436;2023-08-17T09:09:55;12.15;;;2.80;;
18983;SDS011;9626;52.552;13.436;2023-08-17T09:12:22;7.80;;;3.45;;
18983;SDS011;9626;52.552;13.436;2023-08-17T09:14:48;3.75;;;2.55;;
18983;SDS011;9626;52.552;13.436;2023-08-17T09:17:14;8.77;;;2.88;;
18983;SDS011;9626;52.552;13.436;2023-08-17T09:19:48;5.15;;;2.28;;
18983;SDS011;9626;52.552;13.436;2023-08-17T09:22:21;3.92;;;1.90;;
18983;SDS011;9626;52.552;13.436;2023-08-17T09:24:51;5.65;;;2.40;;
18983;SDS011;9626;52.552;13.436;2023-08-17T09:27:17;4.35;;;2.58;;
18983;SDS011;9626;52.552;13.436;2023-08-17T09:29:43;3.22;;;2.20;;
18983;SDS011;9626;52.552;13.436;2023-08-17T09:32:11;5.22;;;2.42;;
18983;SDS011;9626;52.552;13.436;2023-08-17T09:34:44;3.00;;;2.50;;
18983;SDS011;9626;52.552;13.436;2023-08-17T09:37:11;4.15;;;2.58;;
18983;SDS011;9626;52.552;13.436;2023-08-17T09:39:38;5.97;;;2.40;;
18983;SDS011;9626;52.552;13.436;2023-08-17T09:42:05;4.38;;;2.33;;
18983;SDS011;9626;52.552;13.436;2023-08-17T09:44:33;12.65;;;3.60;;
18983;SDS011;9626;52.552;13.436;2023-08-17T09:46:59;2.60;;;2.33;;
18983;SDS011;9626;52.552;13.436;2023-08-17T09:49:25;7.50;;;2.97;;
18983;SDS011;9626;52.552;13.436;2023-08-17T09:51:51;5.80;;;2.85;;
18983;SDS011;9626;52.552;13.436;2023-08-17T09:54:21;7.47;;;2.80;;
18983;SDS011;9626;52.552;13.436;2023-08-17T09:56:51;21.08;;;5.43;;
18983;SDS011;9626;52.552;13.436;2023-08-17T09:59:18;7.55;;;2.95;;
18983;SDS011;9626;52.552;13.436;2023-08-17T10:01:47;4.65;;;2.53;;
18983;SDS011;9626;52.552;13.436;2023-08-17T10:04:16;5.75;;;2.55;;
18983;SDS011;9626;52.552;13.436;2023-08-17T10:06:57;6.60;;;2.38;;
18983;SDS011;9626;52.552;13.436;2023-08-17T10:09:28;4.47;;;2.40;;
18983;SDS011;9626;52.552;13.436;2023-08-17T10:11:57;4.38;;;2.47;;
18983;SDS011;9626;52.552;13.436;2023-08-17T10:14:33;5.07;;;2.17;;
18983;SDS011;9626;52.552;13.436;2023-08-17T10:17:07;3.33;;;2.38;;
18983;SDS011;9626;52.552;13.436;2023-08-17T10:19:43;3.95;;;2.33;;
18983;SDS011;9626;52.552;13.436;2023-08-17T10:24:58;5.97;;;2.60;;
18983;SDS011;9626;52.552;13.436;2023-08-17T10:27:26;3.85;;;1.95;;
18983;SDS011;9626;52.552;13.436;2023-08-17T10:29:52;3.50;;;2.40;;
18983;SDS011;9626;52.552;13.436;2023-08-17T10:32:21;6.38;;;2.30;;
18983;SDS011;9626;52.552;13.436;2023-08-17T10:34:47;6.13;;;2.25;;
18983;SDS011;9626;52.552;13.436;2023-08-17T10:37:15;3.47;;;2.20;;
18983;SDS011;9626;52.552;13.436;2023-08-17T10:39:47;3.40;;;2.70;;
18983;SDS011;9626;52.552;13.436;2023-08-17T10:42:14;3.60;;;2.40;;
18983;SDS011;9626;52.552;13.436;2023-08-17T10:44:46;3.42;;;2.58;;
18983;SDS011;9626;52.552;13.436;2023-08-17T10:49:56;19.35;;;5.10;;
18983;SDS011;9626;52.552;13.436;2023-08-17T10:52:35;9.95;;;3.63;;
18983;SDS011;9626;52.552;13.436;2023-08-17T10:55:06;5.15;;;2.50;;
18983;SDS011;9626;52.552;13.436;2023-08-17T10:57:36;5.03;;;2.03;;
18983;SDS011;9626;52.552;13.436;2023-08-17T11:00:16;3.90;;;2.60;;
18983;SDS011;9626;52.552;13.436;2023-08-17T11:02:52;4.00;;;2.13;;
18983;SDS011;9626;52.552;13.436;2023-08-17T11:05:36;7.20;;;2.70;;
18983;SDS011;9626;52.552;13.436;2023-08-17T11:08:19;7.57;;;3.33;;
18983;SDS011;9626;52.552;13.436;2023-08-17T11:10:47;4.18;;;2.70;;
18983;SDS011;9626;52.552;13.436;2023-08-17T11:13:35;3.60;;;2.53;;
18983;SDS011;9626;52.552;13.436;2023-08-17T11:16:02;7.15;;;2.85;;
18983;SDS011;9626;52.552;13.436;2023-08-17T11:18:29;4.40;;;2.50;;
18983;SDS011;9626;52.552;13.436;2023-08-17T11:20:56;3.10;;;2.75;;
18983;SDS011;9626;52.552;13.436;2023-08-17T11:23:23;5.95;;;2.88;;
18983;SDS011;9626;52.552;13.436;2023-08-17T11:25:50;5.38;;;2.63;;
18983;SDS011;9626;52.552;13.436;2023-08-17T11:28:18;3.97;;;2.50;;
18983;SDS011;9626;52.552;13.436;2023-08-17T11:30:44;4.32;;;2.80;;
18983;SDS011;9626;52.552;13.436;2023-08-17T11:33:10;3.47;;;2.80;;
18983;SDS011;9626;52.552;13.436;2023-08-17T11:35:37;4.15;;;2.97;;
18983;SDS011;9626;52.552;13.436;2023-08-17T11:38:03;4.80;;;2.67;;
18983;SDS011;9626;52.552;13.436;2023-08-17T11:40:31;5.38;;;3.10;;
18983;SDS011;9626;52.552;13.436;2023-08-17T11:42:58;3.65;;;2.60;;
18983;SDS011;9626;52.552;13.436;2023-08-17T11:45:24;3.20;;;2.90;;
18983;SDS011;9626;52.552;13.436;2023-08-17T11:47:50;4.30;;;2.70;;
18983;SDS011;9626;52.552;13.436;2023-08-17T11:50:17;3.42;;;2.40;;
18983;SDS011;9626;52.552;13.436;2023-08-17T11:52:43;4.15;;;2.67;;
18983;SDS011;9626;52.552;13.436;2023-08-17T11:55:09;4.07;;;2.95;;
18983;SDS011;9626;52.552;13.436;2023-08-17T11:57:53;7.88;;;2.80;;
18983;SDS011;9626;52.552;13.436;2023-08-17T12:00:42;6.53;;;3.20;;
18983;SDS011;9626;52.552;13.436;2023-08-17T12:03:13;6.18;;;3.00;;
18983;SDS011;9626;52.552;13.436;2023-08-17T12:05:41;6.22;;;3.28;;
18983;SDS011;9626;52.552;13.436;2023-08-17T12:08:09;5.15;;;2.75;;
18983;SDS011;9626;52.552;13.436;2023-08-17T12:10:36;3.70;;;3.33;;
18983;SDS011;9626;52.552;13.436;2023-08-17T12:13:04;4.95;;;3.42;;
18983;SDS011;9626;52.552;13.436;2023-08-17T12:15:33;3.63;;;2.50;;
18983;SDS011;9626;52.552;13.436;2023-08-17T12:18:03;6.88;;;3.65;;
18983;SDS011;9626;52.552;13.436;2023-08-17T12:20:32;6.45;;;3.75;;
18983;SDS011;9626;52.552;13.436;2023-08-17T12:23:01;4.72;;;3.50;;
18983;SDS011;9626;52.552;13.436;2023-08-17T12:25:28;7.80;;;4.22;;
18983;SDS011;9626;52.552;13.436;2023-08-17T12:27:54;5.63;;;4.03;;
18983;SDS011;9626;52.552;13.436;2023-08-17T12:30:24;5.32;;;4.13;;
18983;SDS011;9626;52.552;13.436;2023-08-17T12:32:55;6.13;;;3.78;;
18983;SDS011;9626;52.552;13.436;2023-08-17T12:35:21;4.28;;;3.75;;
18983;SDS011;9626;52.552;13.436;2023-08-17T12:37:50;4.85;;;4.22;;
18983;SDS011;9626;52.552;13.436;2023-08-17T12:40:19;5.80;;;3.42;;
18983;SDS011;9626;52.552;13.436;2023-08-17T12:42:46;6.07;;;4.30;;
18983;SDS011;9626;52.552;13.436;2023-08-17T12:45:12;6.75;;;3.95;;
18983;SDS011;9626;52.552;13.436;2023-08-17T12:47:39;10.45;;;5.25;;
18983;SDS011;9626;52.552;13.436;2023-08-17T12:50:05;7.20;;;3.70;;
18983;SDS011;9626;52.552;13.436;2023-08-17T12:52:32;15.38;;;6.25;;
18983;SDS011;9626;52.552;13.436;2023-08-17T12:54:59;6.82;;;4.30;;
18983;SDS011;9626;52.552;13.436;2023-08-17T12:57:25;6.18;;;3.72;;
18983;SDS011;9626;52.552;13.436;2023-08-17T12:59:52;6.35;;;4.78;;
18983;SDS011;9626;52.552;13.436;2023-08-17T13:02:19;4.68;;;3.75;;
18983;SDS011;9626;52.552;13.436;2023-08-17T13:04:46;4.22;;;3.92;;
18983;SDS011;9626;52.552;13.436;2023-08-17T13:07:12;7.75;;;4.47;;
18983;SDS011;9626;52.552;13.436;2023-08-17T13:09:38;3.85;;;3.35;;
18983;SDS011;9626;52.552;13.436;2023-08-17T13:12:06;4.70;;;3.30;;
18983;SDS011;9626;52.552;13.436;2023-08-17T13:14:32;6.28;;;3.72;;
18983;SDS011;9626;52.552;13.436;2023-08-17T13:16:58;4.43;;;3.80;;
18983;SDS011;9626;52.552;13.436;2023-08-17T13:19:24;4.38;;;3.70;;
18983;SDS011;9626;52.552;13.436;2023-08-17T13:21:51;7.80;;;5.07;;
18983;SDS011;9626;52.552;13.436;2023-08-17T13:24:17;6.43;;;4.25;;
18983;SDS011;9626;52.552;13.436;2023-08-17T13:26:43;5.80;;;4.65;;
18983;SDS011;9626;52.552;13.436;2023-08-17T13:29:09;5.97;;;4.00;;
18983;SDS011;9626;52.552;13.436;2023-08-17T13:31:35;4.60;;;4.10;;
18983;SDS011;9626;52.552;13.436;2023-08-17T13:34:01;5.32;;;3.97;;
18983;SDS011;9626;52.552;13.436;2023-08-17T13:36:27;4.03;;;3.60;;
18983;SDS011;9626;52.552;13.436;2023-08-17T13:38:54;4.00;;;3.60;;
18983;SDS011;9626;52.552;13.436;2023-08-17T13:41:20;4.97;;;3.78;;
18983;SDS011;9626;52.552;13.436;2023-08-17T13:43:46;5.53;;;4.90;;
18983;SDS011;9626;52.552;13.436;2023-08-17T13:46:12;11.48;;;4.55;;
18983;SDS011;9626;52.552;13.436;2023-08-17T13:48:38;6.22;;;5.32;;
18983;SDS011;9626;52.552;13.436;2023-08-17T13:51:04;9.48;;;7.30;;
18983;SDS011;9626;52.552;13.436;2023-08-17T13:53:31;7.07;;;4.72;;
18983;SDS011;9626;52.552;13.436;2023-08-17T13:55:57;4.57;;;3.70;;
18983;SDS011;9626;52.552;13.436;2023-08-17T13:58:23;4.13;;;3.50;;
18983;SDS011;9626;52.552;13.436;2023-08-17T14:00:49;4.85;;;4.20;;
18983;SDS011;9626;52.552;13.436;2023-08-17T14:03:15;3.92;;;3.55;;
18983;SDS011;9626;52.552;13.436;2023-08-17T14:05:41;5.60;;;3.80;;
18983;SDS011;9626;52.552;13.436;2023-08-17T14:08:07;3.65;;;3.20;;
18983;SDS011;9626;52.552;13.436;2023-08-17T14:10:33;4.07;;;3.55;;
18983;SDS011;9626;52.552;13.436;2023-08-17T14:13:01;4.65;;;3.67;;
18983;SDS011;9626;52.552;13.436;2023-08-17T14:15:28;4.65;;;3.17;;
18983;SDS011;9626;52.552;13.436;2023-08-17T14:17:54;4.05;;;3.33;;
18983;SDS011;9626;52.552;13.436;2023-08-17T14:20:20;10.90;;;4.90;;
18983;SDS011;9626;52.552;13.436;2023-08-17T14:22:46;3.72;;;3.22;;
18983;SDS011;9626;52.552;13.436;2023-08-17T14:25:12;4.18;;;3.47;;
18983;SDS011;9626;52.552;13.436;2023-08-17T14:27:39;10.60;;;3.75;;
18983;SDS011;9626;52.552;13.436;2023-08-17T14:30:05;4.45;;;3.13;;
18983;SDS011;9626;52.552;13.436;2023-08-17T14:32:31;6.93;;;4.10;;
18983;SDS011;9626;52.552;13.436;2023-08-17T14:34:58;5.82;;;3.50;;
18983;SDS011;9626;52.552;13.436;2023-08-17T14:37:24;4.78;;;3.30;;
18983;SDS011;9626;52.552;13.436;2023-08-17T14:39:50;4.20;;;3.40;;
18983;SDS011;9626;52.552;13.436;2023-08-17T14:42:16;3.38;;;3.08;;
18983;SDS011;9626;52.552;13.436;2023-08-17T14:44:42;3.72;;;3.42;;
18983;SDS011;9626;52.552;13.436;2023-08-17T14:47:09;4.63;;;3.58;;
18983;SDS011;9626;52.552;13.436;2023-08-17T14:49:35;3.72;;;2.97;;
18983;SDS011;9626;52.552;13.436;2023-08-17T14:52:01;4.10;;;3.55;;
18983;SDS011;9626;52.552;13.436;2023-08-17T14:54:27;5.10;;;3.55;;
18983;SDS011;9626;52.552;13.436;2023-08-17T14:56:53;4.60;;;3.30;;